sensor_id;sensor_type;location;lat;lon;timestamp;P1;durP1;ratioP1;P2;durP2;ratioP2
70045;SDS011;57385;41.832;23.494;2022-09-21T00:00:16;6.20;;;4.57;;
70045;SDS011;57385;41.832;23.494;2022-09-21T00:00:38;4.70;;;4.30;;
70045;SDS011;57385;41.832;23.494;2022-09-21T00:01:28;4.90;;;4.50;;
70045;SDS011;57385;41.832;23.494;2022-09-21T00:01:49;4.60;;;4.20;;
70045;SDS011;57385;41.832;23.494;2022-09-21T00:02:08;4.53;;;4.13;;
70045;SDS011;57385;41.832;23.494;2022-09-21T00:02:28;4.68;;;4.28;;
70045;SDS011;57385;41.832;23.494;2022-09-21T00:02:47;4.33;;;3.93;;
70045;SDS011;57385;41.832;23.494;2022-09-21T00:03:07;4.57;;;4.18;;
70045;SDS011;57385;41.832;23.494;2022-09-21T00:03:29;4.82;;;4.28;;
70045;SDS011;57385;41.832;23.494;2022-09-21T00:03:52;4.38;;;4.00;;
70045;SDS011;57385;41.832;23.494;2022-09-21T00:04:19;4.30;;;3.97;;
70045;SDS011;57385;41.832;23.494;2022-09-21T00:04:38;5.60;;;4.07;;
70045;SDS011;57385;41.832;23.494;2022-09-21T00:04:58;5.87;;;4.30;;
70045;SDS011;57385;41.832;23.494;2022-09-21T00:05:20;5.18;;;4.65;;
70045;SDS011;57385;41.832;23.494;2022-09-21T00:05:39;5.82;;;4.70;;
70045;SDS011;57385;41.832;23.494;2022-09-21T00:06:09;5.10;;;4.60;;
70045;SDS011;57385;41.832;23.494;2022-09-21T00:06:33;5.30;;;4.80;;
70045;SDS011;57385;41.832;23.494;2022-09-21T00:06:53;5.22;;;4.72;;
70045;SDS011;57385;41.832;23.494;2022-09-21T00:07:12;5.20;;;4.70;;
70045;SDS011;57385;41.832;23.494;2022-09-21T00:07:32;6.05;;;4.85;;
70045;SDS011;57385;41.832;23.494;2022-09-21T00:07:54;5.20;;;4.70;;
70045;SDS011;57385;41.832;23.494;2022-09-21T00:08:13;4.90;;;4.50;;
70045;SDS011;57385;41.832;23.494;2022-09-21T00:08:33;5.55;;;5.03;;
70045;SDS011;57385;41.832;23.494;2022-09-21T00:08:53;5.45;;;4.95;;
70045;SDS011;57385;41.832;23.494;2022-09-21T00:09:14;5.57;;;4.75;;
70045;SDS011;57385;41.832;23.494;2022-09-21T00:09:33;5.20;;;4.70;;
70045;SDS011;57385;41.832;23.494;2022-09-21T00:09:53;5.40;;;4.70;;
70045;SDS011;57385;41.832;23.494;2022-09-21T00:10:15;5.55;;;4.68;;
70045;SDS011;57385;41.832;23.494;2022-09-21T00:10:35;5.30;;;4.80;;
70045;SDS011;57385;41.832;23.494;2022-09-21T00:10:58;5.43;;;4.93;;
70045;SDS011;57385;41.832;23.494;2022-09-21T00:11:19;5.28;;;4.88;;
70045;SDS011;57385;41.832;23.494;2022-09-21T00:11:43;6.50;;;5.40;;
70045;SDS011;57385;41.832;23.494;2022-09-21T00:12:03;5.50;;;5.00;;
70045;SDS011;57385;41.832;23.494;2022-09-21T00:12:25;5.18;;;4.68;;
70045;SDS011;57385;41.832;23.494;2022-09-21T00:12:48;5.07;;;4.60;;
70045;SDS011;57385;41.832;23.494;2022-09-21T00:13:09;5.13;;;4.63;;
70045;SDS011;57385;41.832;23.494;2022-09-21T00:13:30;5.70;;;4.90;;
70045;SDS011;57385;41.832;23.494;2022-09-21T00:13:51;6.50;;;4.85;;
70045;SDS011;57385;41.832;23.494;2022-09-21T00:14:15;5.05;;;4.55;;
70045;SDS011;57385;41.832;23.494;2022-09-21T00:14:34;4.75;;;4.30;;
70045;SDS011;57385;41.832;23.494;2022-09-21T00:14:54;4.83;;;4.43;;
70045;SDS011;57385;41.832;23.494;2022-09-21T00:15:14;5.10;;;4.70;;
70045;SDS011;57385;41.832;23.494;2022-09-21T00:15:35;4.70;;;4.13;;
70045;SDS011;57385;41.832;23.494;2022-09-21T00:15:57;4.60;;;4.20;;
70045;SDS011;57385;41.832;23.494;2022-09-21T00:16:17;4.78;;;4.35;;
70045;SDS011;57385;41.832;23.494;2022-09-21T00:16:37;6.03;;;4.45;;
70045;SDS011;57385;41.832;23.494;2022-09-21T00:16:58;4.82;;;4.38;;
70045;SDS011;57385;41.832;23.494;2022-09-21T00:17:17;5.73;;;4.37;;
70045;SDS011;57385;41.832;23.494;2022-09-21T00:17:37;5.13;;;3.85;;
70045;SDS011;57385;41.832;23.494;2022-09-21T00:17:57;4.37;;;3.97;;
70045;SDS011;57385;41.832;23.494;2022-09-21T00:18:17;4.32;;;3.90;;
70045;SDS011;57385;41.832;23.494;2022-09-21T00:18:36;4.72;;;4.28;;
70045;SDS011;57385;41.832;23.494;2022-09-21T00:18:56;4.85;;;4.45;;
70045;SDS011;57385;41.832;23.494;2022-09-21T00:19:16;4.50;;;4.17;;
70045;SDS011;57385;41.832;23.494;2022-09-21T00:19:35;4.38;;;4.07;;
70045;SDS011;57385;41.832;23.494;2022-09-21T00:19:54;4.67;;;4.27;;
70045;SDS011;57385;41.832;23.494;2022-09-21T00:20:14;4.65;;;4.25;;
70045;SDS011;57385;41.832;23.494;2022-09-21T00:20:33;4.57;;;4.17;;
70045;SDS011;57385;41.832;23.494;2022-09-21T00:20:53;4.90;;;4.40;;
70045;SDS011;57385;41.832;23.494;2022-09-21T00:21:13;4.93;;;4.47;;
70045;SDS011;57385;41.832;23.494;2022-09-21T00:21:34;4.68;;;4.28;;
70045;SDS011;57385;41.832;23.494;2022-09-21T00:21:54;4.65;;;4.25;;
70045;SDS011;57385;41.832;23.494;2022-09-21T00:22:14;4.60;;;4.28;;
70045;SDS011;57385;41.832;23.494;2022-09-21T00:22:34;4.32;;;4.03;;
70045;SDS011;57385;41.832;23.494;2022-09-21T00:22:53;4.60;;;4.20;;
70045;SDS011;57385;41.832;23.494;2022-09-21T00:23:13;4.67;;;4.27;;
70045;SDS011;57385;41.832;23.494;2022-09-21T00:23:33;4.85;;;4.45;;
70045;SDS011;57385;41.832;23.494;2022-09-21T00:23:54;5.15;;;4.75;;
70045;SDS011;57385;41.832;23.494;2022-09-21T00:24:14;5.07;;;4.68;;
70045;SDS011;57385;41.832;23.494;2022-09-21T00:24:33;5.13;;;4.63;;
70045;SDS011;57385;41.832;23.494;2022-09-21T00:24:52;4.73;;;4.33;;
70045;SDS011;57385;41.832;23.494;2022-09-21T00:25:12;4.65;;;4.25;;
70045;SDS011;57385;41.832;23.494;2022-09-21T00:25:33;4.90;;;4.50;;
70045;SDS011;57385;41.832;23.494;2022-09-21T00:26:02;5.00;;;4.50;;
70045;SDS011;57385;41.832;23.494;2022-09-21T00:26:27;5.32;;;4.85;;
70045;SDS011;57385;41.832;23.494;2022-09-21T00:26:47;5.80;;;5.20;;
70045;SDS011;57385;41.832;23.494;2022-09-21T00:27:07;5.90;;;5.03;;
70045;SDS011;57385;41.832;23.494;2022-09-21T00:27:26;5.57;;;5.07;;
70045;SDS011;57385;41.832;23.494;2022-09-21T00:27:46;5.80;;;5.30;;
70045;SDS011;57385;41.832;23.494;2022-09-21T00:28:05;5.93;;;5.32;;
70045;SDS011;57385;41.832;23.494;2022-09-21T00:28:25;6.47;;;5.70;;
70045;SDS011;57385;41.832;23.494;2022-09-21T00:28:44;6.33;;;5.73;;
70045;SDS011;57385;41.832;23.494;2022-09-21T00:29:04;6.63;;;6.03;;
70045;SDS011;57385;41.832;23.494;2022-09-21T00:29:24;6.97;;;6.37;;
70045;SDS011;57385;41.832;23.494;2022-09-21T00:29:43;7.63;;;6.70;;
70045;SDS011;57385;41.832;23.494;2022-09-21T00:30:03;7.57;;;6.95;;
70045;SDS011;57385;41.832;23.494;2022-09-21T00:30:23;8.00;;;7.30;;
70045;SDS011;57385;41.832;23.494;2022-09-21T00:30:43;8.03;;;7.23;;
70045;SDS011;57385;41.832;23.494;2022-09-21T00:31:03;8.00;;;7.20;;
70045;SDS011;57385;41.832;23.494;2022-09-21T00:31:24;8.20;;;7.50;;
70045;SDS011;57385;41.832;23.494;2022-09-21T00:31:45;8.10;;;7.30;;
70045;SDS011;57385;41.832;23.494;2022-09-21T00:32:04;8.27;;;7.30;;
70045;SDS011;57385;41.832;23.494;2022-09-21T00:32:23;8.10;;;7.30;;
70045;SDS011;57385;41.832;23.494;2022-09-21T00:32:43;7.90;;;7.20;;
70045;SDS011;57385;41.832;23.494;2022-09-21T00:33:02;8.33;;;7.63;;
70045;SDS011;57385;41.832;23.494;2022-09-21T00:33:22;8.68;;;7.97;;
70045;SDS011;57385;41.832;23.494;2022-09-21T00:33:41;8.80;;;8.10;;
70045;SDS011;57385;41.832;23.494;2022-09-21T00:34:01;9.20;;;8.40;;
70045;SDS011;57385;41.832;23.494;2022-09-21T00:34:21;8.47;;;7.77;;
70045;SDS011;57385;41.832;23.494;2022-09-21T00:34:40;8.43;;;7.73;;
70045;SDS011;57385;41.832;23.494;2022-09-21T00:35:00;8.77;;;8.00;;
70045;SDS011;57385;41.832;23.494;2022-09-21T00:35:22;9.18;;;8.27;;
70045;SDS011;57385;41.832;23.494;2022-09-21T00:35:42;9.20;;;8.40;;
70045;SDS011;57385;41.832;23.494;2022-09-21T00:36:05;9.48;;;8.68;;
70045;SDS011;57385;41.832;23.494;2022-09-21T00:36:26;10.13;;;9.23;;
70045;SDS011;57385;41.832;23.494;2022-09-21T00:36:46;10.05;;;9.10;;
70045;SDS011;57385;41.832;23.494;2022-09-21T00:37:06;10.67;;;9.57;;
70045;SDS011;57385;41.832;23.494;2022-09-21T00:37:26;10.55;;;9.55;;
70045;SDS011;57385;41.832;23.494;2022-09-21T00:37:51;10.90;;;10.00;;
70045;SDS011;57385;41.832;23.494;2022-09-21T00:38:10;11.05;;;9.85;;
70045;SDS011;57385;41.832;23.494;2022-09-21T00:38:30;10.80;;;9.70;;
70045;SDS011;57385;41.832;23.494;2022-09-21T00:38:55;10.43;;;9.43;;
70045;SDS011;57385;41.832;23.494;2022-09-21T00:39:16;10.42;;;9.52;;
70045;SDS011;57385;41.832;23.494;2022-09-21T00:39:36;10.77;;;9.80;;
70045;SDS011;57385;41.832;23.494;2022-09-21T00:39:56;10.73;;;9.73;;
70045;SDS011;57385;41.832;23.494;2022-09-21T00:40:18;10.98;;;10.05;;
70045;SDS011;57385;41.832;23.494;2022-09-21T00:40:37;10.63;;;9.73;;
70045;SDS011;57385;41.832;23.494;2022-09-21T00:40:59;10.50;;;9.50;;
70045;SDS011;57385;41.832;23.494;2022-09-21T00:41:19;10.68;;;9.68;;
70045;SDS011;57385;41.832;23.494;2022-09-21T00:41:38;10.88;;;9.88;;
70045;SDS011;57385;41.832;23.494;2022-09-21T00:41:58;11.05;;;10.05;;
70045;SDS011;57385;41.832;23.494;2022-09-21T00:42:22;11.10;;;10.10;;
70045;SDS011;57385;41.832;23.494;2022-09-21T00:42:46;10.93;;;10.00;;
70045;SDS011;57385;41.832;23.494;2022-09-21T00:43:12;10.93;;;10.00;;
70045;SDS011;57385;41.832;23.494;2022-09-21T00:43:44;10.50;;;9.50;;
70045;SDS011;57385;41.832;23.494;2022-09-21T00:44:34;11.00;;;10.02;;
70045;SDS011;57385;41.832;23.494;2022-09-21T00:44:55;10.55;;;9.65;;
70045;SDS011;57385;41.832;23.494;2022-09-21T00:45:15;10.45;;;9.55;;
70045;SDS011;57385;41.832;23.494;2022-09-21T00:45:35;10.87;;;9.97;;
70045;SDS011;57385;41.832;23.494;2022-09-21T00:46:01;11.02;;;10.05;;
70045;SDS011;57385;41.832;23.494;2022-09-21T00:46:25;12.00;;;10.90;;
70045;SDS011;57385;41.832;23.494;2022-09-21T00:46:47;11.40;;;10.40;;
70045;SDS011;57385;41.832;23.494;2022-09-21T00:47:09;11.32;;;10.32;;
70045;SDS011;57385;41.832;23.494;2022-09-21T00:47:43;11.30;;;10.30;;
70045;SDS011;57385;41.832;23.494;2022-09-21T00:48:03;11.43;;;10.43;;
70045;SDS011;57385;41.832;23.494;2022-09-21T00:48:26;11.57;;;10.57;;
70045;SDS011;57385;41.832;23.494;2022-09-21T00:48:46;11.75;;;10.65;;
70045;SDS011;57385;41.832;23.494;2022-09-21T00:49:06;10.70;;;9.70;;
70045;SDS011;57385;41.832;23.494;2022-09-21T00:49:29;11.38;;;10.35;;
70045;SDS011;57385;41.832;23.494;2022-09-21T00:49:52;11.90;;;10.73;;
70045;SDS011;57385;41.832;23.494;2022-09-21T00:50:14;11.80;;;10.70;;
70045;SDS011;57385;41.832;23.494;2022-09-21T00:50:42;11.05;;;10.07;;
70045;SDS011;57385;41.832;23.494;2022-09-21T00:51:05;11.05;;;10.00;;
70045;SDS011;57385;41.832;23.494;2022-09-21T00:51:26;11.50;;;10.50;;
70045;SDS011;57385;41.832;23.494;2022-09-21T00:51:47;11.02;;;10.02;;
70045;SDS011;57385;41.832;23.494;2022-09-21T00:52:07;11.23;;;10.25;;
70045;SDS011;57385;41.832;23.494;2022-09-21T00:52:31;10.77;;;9.88;;
70045;SDS011;57385;41.832;23.494;2022-09-21T00:52:55;10.93;;;10.02;;
70045;SDS011;57385;41.832;23.494;2022-09-21T00:53:19;11.07;;;10.07;;
70045;SDS011;57385;41.832;23.494;2022-09-21T00:53:39;11.75;;;10.73;;
70045;SDS011;57385;41.832;23.494;2022-09-21T00:54:02;10.98;;;10.07;;
70045;SDS011;57385;41.832;23.494;2022-09-21T00:54:28;10.63;;;9.70;;
70045;SDS011;57385;41.832;23.494;2022-09-21T00:54:52;9.88;;;8.98;;
70045;SDS011;57385;41.832;23.494;2022-09-21T00:55:54;11.55;;;10.45;;
70045;SDS011;57385;41.832;23.494;2022-09-21T00:56:16;10.93;;;9.90;;
70045;SDS011;57385;41.832;23.494;2022-09-21T00:56:35;11.00;;;10.00;;
70045;SDS011;57385;41.832;23.494;2022-09-21T00:56:55;10.50;;;9.60;;
70045;SDS011;57385;41.832;23.494;2022-09-21T00:57:17;10.35;;;9.45;;
70045;SDS011;57385;41.832;23.494;2022-09-21T00:57:38;10.55;;;9.60;;
70045;SDS011;57385;41.832;23.494;2022-09-21T00:58:02;11.40;;;10.40;;
70045;SDS011;57385;41.832;23.494;2022-09-21T00:58:27;11.45;;;10.40;;
70045;SDS011;57385;41.832;23.494;2022-09-21T00:58:52;13.10;;;10.25;;
70045;SDS011;57385;41.832;23.494;2022-09-21T00:59:12;11.15;;;10.10;;
70045;SDS011;57385;41.832;23.494;2022-09-21T00:59:36;10.90;;;9.98;;
70045;SDS011;57385;41.832;23.494;2022-09-21T00:59:59;11.18;;;10.15;;
70045;SDS011;57385;41.832;23.494;2022-09-21T01:00:22;11.23;;;10.23;;
70045;SDS011;57385;41.832;23.494;2022-09-21T01:00:41;11.30;;;10.30;;
70045;SDS011;57385;41.832;23.494;2022-09-21T01:01:01;11.10;;;10.10;;
70045;SDS011;57385;41.832;23.494;2022-09-21T01:01:20;11.33;;;10.33;;
70045;SDS011;57385;41.832;23.494;2022-09-21T01:01:40;11.65;;;10.55;;
70045;SDS011;57385;41.832;23.494;2022-09-21T01:01:59;11.45;;;10.45;;
70045;SDS011;57385;41.832;23.494;2022-09-21T01:02:19;11.43;;;10.43;;
70045;SDS011;57385;41.832;23.494;2022-09-21T01:02:39;10.52;;;9.55;;
70045;SDS011;57385;41.832;23.494;2022-09-21T01:02:59;10.73;;;9.77;;
70045;SDS011;57385;41.832;23.494;2022-09-21T01:03:18;10.52;;;9.63;;
70045;SDS011;57385;41.832;23.494;2022-09-21T01:03:38;11.03;;;10.10;;
70045;SDS011;57385;41.832;23.494;2022-09-21T01:03:57;11.60;;;10.55;;
70045;SDS011;57385;41.832;23.494;2022-09-21T01:04:17;11.07;;;10.10;;
70045;SDS011;57385;41.832;23.494;2022-09-21T01:04:37;11.05;;;10.05;;
70045;SDS011;57385;41.832;23.494;2022-09-21T01:04:57;11.63;;;10.52;;
70045;SDS011;57385;41.832;23.494;2022-09-21T01:05:17;10.87;;;9.87;;
70045;SDS011;57385;41.832;23.494;2022-09-21T01:05:36;10.70;;;9.70;;
70045;SDS011;57385;41.832;23.494;2022-09-21T01:05:56;10.73;;;9.73;;
70045;SDS011;57385;41.832;23.494;2022-09-21T01:06:16;10.80;;;9.80;;
70045;SDS011;57385;41.832;23.494;2022-09-21T01:06:39;11.02;;;10.02;;
70045;SDS011;57385;41.832;23.494;2022-09-21T01:07:00;10.82;;;9.80;;
70045;SDS011;57385;41.832;23.494;2022-09-21T01:07:24;10.27;;;9.27;;
70045;SDS011;57385;41.832;23.494;2022-09-21T01:07:46;10.57;;;9.65;;
70045;SDS011;57385;41.832;23.494;2022-09-21T01:08:06;10.77;;;9.77;;
70045;SDS011;57385;41.832;23.494;2022-09-21T01:08:29;11.27;;;10.18;;
70045;SDS011;57385;41.832;23.494;2022-09-21T01:08:49;11.13;;;10.13;;
70045;SDS011;57385;41.832;23.494;2022-09-21T01:09:14;10.75;;;9.82;;
70045;SDS011;57385;41.832;23.494;2022-09-21T01:09:35;10.32;;;9.43;;
70045;SDS011;57385;41.832;23.494;2022-09-21T01:09:55;10.43;;;9.40;;
70045;SDS011;57385;41.832;23.494;2022-09-21T01:10:18;10.82;;;9.73;;
70045;SDS011;57385;41.832;23.494;2022-09-21T01:10:43;10.35;;;9.40;;
70045;SDS011;57385;41.832;23.494;2022-09-21T01:11:21;11.43;;;10.32;;
70045;SDS011;57385;41.832;23.494;2022-09-21T01:13:33;11.25;;;10.15;;
70045;SDS011;57385;41.832;23.494;2022-09-21T01:15:18;10.63;;;9.65;;
70045;SDS011;57385;41.832;23.494;2022-09-21T01:15:54;9.20;;;8.40;;
70045;SDS011;57385;41.832;23.494;2022-09-21T01:16:25;10.00;;;9.00;;
70045;SDS011;57385;41.832;23.494;2022-09-21T01:18:57;9.50;;;8.70;;
70045;SDS011;57385;41.832;23.494;2022-09-21T01:20:06;8.80;;;8.00;;
70045;SDS011;57385;41.832;23.494;2022-09-21T01:21:28;9.30;;;8.43;;
70045;SDS011;57385;41.832;23.494;2022-09-21T01:23:37;8.10;;;7.40;;
70045;SDS011;57385;41.832;23.494;2022-09-21T01:25:00;8.40;;;7.60;;
70045;SDS011;57385;41.832;23.494;2022-09-21T01:25:01;8.10;;;7.30;;
70045;SDS011;57385;41.832;23.494;2022-09-21T01:29:47;7.18;;;6.57;;
70045;SDS011;57385;41.832;23.494;2022-09-21T01:30:18;6.82;;;6.30;;
70045;SDS011;57385;41.832;23.494;2022-09-21T01:30:39;7.30;;;6.70;;
70045;SDS011;57385;41.832;23.494;2022-09-21T01:31:02;7.40;;;6.70;;
70045;SDS011;57385;41.832;23.494;2022-09-21T01:31:25;7.03;;;6.40;;
70045;SDS011;57385;41.832;23.494;2022-09-21T01:32:38;7.85;;;6.80;;
70045;SDS011;57385;41.832;23.494;2022-09-21T01:33:02;7.44;;;6.84;;
70045;SDS011;57385;41.832;23.494;2022-09-21T01:33:31;7.15;;;6.45;;
70045;SDS011;57385;41.832;23.494;2022-09-21T01:33:57;6.65;;;6.05;;
70045;SDS011;57385;41.832;23.494;2022-09-21T01:34:30;6.65;;;6.05;;
70045;SDS011;57385;41.832;23.494;2022-09-21T01:34:57;6.95;;;6.35;;
70045;SDS011;57385;41.832;23.494;2022-09-21T01:35:28;7.35;;;6.65;;
70045;SDS011;57385;41.832;23.494;2022-09-21T01:35:49;7.75;;;6.80;;
70045;SDS011;57385;41.832;23.494;2022-09-21T01:36:15;6.70;;;6.10;;
70045;SDS011;57385;41.832;23.494;2022-09-21T01:36:40;6.60;;;6.00;;
70045;SDS011;57385;41.832;23.494;2022-09-21T01:37:04;6.57;;;5.97;;
70045;SDS011;57385;41.832;23.494;2022-09-21T01:37:38;6.68;;;6.05;;
70045;SDS011;57385;41.832;23.494;2022-09-21T01:38:02;6.35;;;5.85;;
70045;SDS011;57385;41.832;23.494;2022-09-21T01:38:36;8.15;;;6.10;;
70045;SDS011;57385;41.832;23.494;2022-09-21T01:39:07;6.32;;;5.72;;
70045;SDS011;57385;41.832;23.494;2022-09-21T01:39:29;5.57;;;5.07;;
70045;SDS011;57385;41.832;23.494;2022-09-21T01:39:53;5.47;;;4.97;;
70045;SDS011;57385;41.832;23.494;2022-09-21T01:40:19;6.57;;;5.72;;
70045;SDS011;57385;41.832;23.494;2022-09-21T01:40:42;6.72;;;5.32;;
70045;SDS011;57385;41.832;23.494;2022-09-21T01:41:05;5.95;;;5.38;;
70045;SDS011;57385;41.832;23.494;2022-09-21T01:41:28;5.53;;;5.10;;
70045;SDS011;57385;41.832;23.494;2022-09-21T01:41:51;5.20;;;4.80;;
70045;SDS011;57385;41.832;23.494;2022-09-21T01:42:12;4.97;;;4.57;;
70045;SDS011;57385;41.832;23.494;2022-09-21T01:42:34;5.40;;;5.00;;
70045;SDS011;57385;41.832;23.494;2022-09-21T01:42:56;5.30;;;4.90;;
70045;SDS011;57385;41.832;23.494;2022-09-21T01:43:21;5.18;;;4.68;;
70045;SDS011;57385;41.832;23.494;2022-09-21T01:43:46;5.20;;;4.70;;
70045;SDS011;57385;41.832;23.494;2022-09-21T01:44:20;5.15;;;4.75;;
70045;SDS011;57385;41.832;23.494;2022-09-21T01:44:44;4.90;;;4.50;;
70045;SDS011;57385;41.832;23.494;2022-09-21T01:45:05;4.60;;;4.28;;
70045;SDS011;57385;41.832;23.494;2022-09-21T01:45:32;4.72;;;4.40;;
70045;SDS011;57385;41.832;23.494;2022-09-21T01:45:55;4.55;;;4.15;;
70045;SDS011;57385;41.832;23.494;2022-09-21T01:46:18;4.44;;;4.04;;
70045;SDS011;57385;41.832;23.494;2022-09-21T01:46:40;4.50;;;4.10;;
70045;SDS011;57385;41.832;23.494;2022-09-21T01:47:00;6.10;;;4.90;;
70045;SDS011;57385;41.832;23.494;2022-09-21T01:47:21;6.78;;;5.30;;
70045;SDS011;57385;41.832;23.494;2022-09-21T01:47:41;6.88;;;6.18;;
70045;SDS011;57385;41.832;23.494;2022-09-21T01:48:04;6.90;;;6.30;;
70045;SDS011;57385;41.832;23.494;2022-09-21T01:48:25;6.97;;;6.38;;
70045;SDS011;57385;41.832;23.494;2022-09-21T01:48:45;7.43;;;6.73;;
70045;SDS011;57385;41.832;23.494;2022-09-21T01:49:12;7.72;;;7.03;;
70045;SDS011;57385;41.832;23.494;2022-09-21T01:49:36;7.57;;;6.80;;
70045;SDS011;57385;41.832;23.494;2022-09-21T01:50:00;7.00;;;6.30;;
70045;SDS011;57385;41.832;23.494;2022-09-21T01:50:24;7.18;;;6.53;;
70045;SDS011;57385;41.832;23.494;2022-09-21T01:50:51;6.50;;;5.93;;
70045;SDS011;57385;41.832;23.494;2022-09-21T01:51:15;6.32;;;5.82;;
70045;SDS011;57385;41.832;23.494;2022-09-21T01:51:39;6.05;;;5.45;;
70045;SDS011;57385;41.832;23.494;2022-09-21T01:52:14;6.35;;;5.75;;
70045;SDS011;57385;41.832;23.494;2022-09-21T01:52:41;6.22;;;5.70;;
70045;SDS011;57385;41.832;23.494;2022-09-21T01:53:08;6.40;;;5.85;;
70045;SDS011;57385;41.832;23.494;2022-09-21T01:53:36;6.00;;;5.50;;
70045;SDS011;57385;41.832;23.494;2022-09-21T01:54:10;6.18;;;5.68;;
70045;SDS011;57385;41.832;23.494;2022-09-21T01:54:40;5.80;;;5.30;;
70045;SDS011;57385;41.832;23.494;2022-09-21T01:55:09;6.30;;;5.70;;
70045;SDS011;57385;41.832;23.494;2022-09-21T01:56:18;6.95;;;6.25;;
70045;SDS011;57385;41.832;23.494;2022-09-21T01:56:24;6.32;;;5.72;;
70045;SDS011;57385;41.832;23.494;2022-09-21T01:56:52;5.90;;;5.40;;
70045;SDS011;57385;41.832;23.494;2022-09-21T01:58:49;6.72;;;6.13;;
70045;SDS011;57385;41.832;23.494;2022-09-21T01:59:16;6.75;;;6.10;;
70045;SDS011;57385;41.832;23.494;2022-09-21T01:59:51;6.72;;;6.05;;
70045;SDS011;57385;41.832;23.494;2022-09-21T02:00:12;6.90;;;6.25;;
70045;SDS011;57385;41.832;23.494;2022-09-21T02:00:32;7.00;;;6.40;;
70045;SDS011;57385;41.832;23.494;2022-09-21T02:00:54;6.75;;;6.22;;
70045;SDS011;57385;41.832;23.494;2022-09-21T02:01:15;7.25;;;6.35;;
70045;SDS011;57385;41.832;23.494;2022-09-21T02:01:49;7.20;;;6.18;;
70045;SDS011;57385;41.832;23.494;2022-09-21T02:02:23;8.93;;;6.18;;
70045;SDS011;57385;41.832;23.494;2022-09-21T02:02:54;6.90;;;6.30;;
70045;SDS011;57385;41.832;23.494;2022-09-21T02:04:02;7.05;;;6.40;;
70045;SDS011;57385;41.832;23.494;2022-09-21T02:04:26;7.32;;;6.63;;
70045;SDS011;57385;41.832;23.494;2022-09-21T02:04:46;7.30;;;6.63;;
70045;SDS011;57385;41.832;23.494;2022-09-21T02:05:06;8.05;;;7.25;;
70045;SDS011;57385;41.832;23.494;2022-09-21T02:05:27;9.00;;;8.18;;
70045;SDS011;57385;41.832;23.494;2022-09-21T02:05:47;8.95;;;8.05;;
70045;SDS011;57385;41.832;23.494;2022-09-21T02:06:06;8.85;;;8.05;;
70045;SDS011;57385;41.832;23.494;2022-09-21T02:06:27;9.57;;;8.77;;
70045;SDS011;57385;41.832;23.494;2022-09-21T02:06:48;10.05;;;9.05;;
70045;SDS011;57385;41.832;23.494;2022-09-21T02:07:09;10.75;;;9.65;;
70045;SDS011;57385;41.832;23.494;2022-09-21T02:07:31;10.27;;;9.35;;
70045;SDS011;57385;41.832;23.494;2022-09-21T02:07:51;10.02;;;9.13;;
70045;SDS011;57385;41.832;23.494;2022-09-21T02:08:11;9.68;;;8.80;;
70045;SDS011;57385;41.832;23.494;2022-09-21T02:08:31;10.40;;;9.50;;
70045;SDS011;57385;41.832;23.494;2022-09-21T02:08:51;10.25;;;9.30;;
70045;SDS011;57385;41.832;23.494;2022-09-21T02:09:11;9.75;;;8.90;;
70045;SDS011;57385;41.832;23.494;2022-09-21T02:09:31;10.02;;;9.13;;
70045;SDS011;57385;41.832;23.494;2022-09-21T02:09:52;10.23;;;9.23;;
70045;SDS011;57385;41.832;23.494;2022-09-21T02:10:14;10.38;;;9.38;;
70045;SDS011;57385;41.832;23.494;2022-09-21T02:10:40;10.30;;;9.40;;
70045;SDS011;57385;41.832;23.494;2022-09-21T02:11:04;9.95;;;9.05;;
70045;SDS011;57385;41.832;23.494;2022-09-21T02:11:24;10.48;;;9.45;;
70045;SDS011;57385;41.832;23.494;2022-09-21T02:11:43;9.60;;;8.77;;
70045;SDS011;57385;41.832;23.494;2022-09-21T02:12:03;9.32;;;8.52;;
70045;SDS011;57385;41.832;23.494;2022-09-21T02:12:23;8.95;;;8.15;;
70045;SDS011;57385;41.832;23.494;2022-09-21T02:12:42;9.33;;;8.47;;
70045;SDS011;57385;41.832;23.494;2022-09-21T02:13:03;9.80;;;8.90;;
70045;SDS011;57385;41.832;23.494;2022-09-21T02:13:24;8.98;;;8.18;;
70045;SDS011;57385;41.832;23.494;2022-09-21T02:13:49;8.65;;;7.95;;
70045;SDS011;57385;41.832;23.494;2022-09-21T02:14:12;8.95;;;8.15;;
70045;SDS011;57385;41.832;23.494;2022-09-21T02:14:35;9.15;;;8.35;;
70045;SDS011;57385;41.832;23.494;2022-09-21T02:14:55;8.82;;;7.75;;
70045;SDS011;57385;41.832;23.494;2022-09-21T02:15:16;8.55;;;7.75;;
70045;SDS011;57385;41.832;23.494;2022-09-21T02:17:45;8.05;;;7.25;;
70045;SDS011;57385;41.832;23.494;2022-09-21T02:18:25;8.27;;;7.40;;
70045;SDS011;57385;41.832;23.494;2022-09-21T02:20:48;7.50;;;6.80;;
70045;SDS011;57385;41.832;23.494;2022-09-21T02:21:16;8.82;;;7.72;;
70045;SDS011;57385;41.832;23.494;2022-09-21T02:22:11;12.83;;;11.33;;
70045;SDS011;57385;41.832;23.494;2022-09-21T02:23:42;14.68;;;12.27;;
70045;SDS011;57385;41.832;23.494;2022-09-21T02:24:40;12.27;;;10.25;;
70045;SDS011;57385;41.832;23.494;2022-09-21T02:25:06;10.65;;;9.45;;
70045;SDS011;57385;41.832;23.494;2022-09-21T02:26:09;10.73;;;9.65;;
70045;SDS011;57385;41.832;23.494;2022-09-21T02:26:42;10.68;;;9.57;;
70045;SDS011;57385;41.832;23.494;2022-09-21T02:28:07;11.40;;;10.20;;
70045;SDS011;57385;41.832;23.494;2022-09-21T02:28:42;12.32;;;10.57;;
70045;SDS011;57385;41.832;23.494;2022-09-21T02:29:06;14.45;;;10.63;;
70045;SDS011;57385;41.832;23.494;2022-09-21T02:29:29;12.27;;;9.68;;
70045;SDS011;57385;41.832;23.494;2022-09-21T02:30:15;10.18;;;8.77;;
70045;SDS011;57385;41.832;23.494;2022-09-21T02:30:37;10.38;;;8.13;;
70045;SDS011;57385;41.832;23.494;2022-09-21T02:31:14;9.60;;;8.52;;
70045;SDS011;57385;41.832;23.494;2022-09-21T02:31:50;10.10;;;8.43;;
70045;SDS011;57385;41.832;23.494;2022-09-21T02:33:31;9.30;;;8.20;;
70045;SDS011;57385;41.832;23.494;2022-09-21T02:34:43;11.90;;;8.00;;
70045;SDS011;57385;41.832;23.494;2022-09-21T02:36:28;8.65;;;7.55;;
70045;SDS011;57385;41.832;23.494;2022-09-21T02:36:57;9.15;;;7.63;;
70045;SDS011;57385;41.832;23.494;2022-09-21T02:37:29;8.10;;;7.30;;
70045;SDS011;57385;41.832;23.494;2022-09-21T02:39:11;6.57;;;5.97;;
70045;SDS011;57385;41.832;23.494;2022-09-21T02:39:43;7.68;;;6.05;;
70045;SDS011;57385;41.832;23.494;2022-09-21T02:40:54;10.18;;;6.43;;
70045;SDS011;57385;41.832;23.494;2022-09-21T02:41:27;6.45;;;5.85;;
70045;SDS011;57385;41.832;23.494;2022-09-21T02:42:11;6.60;;;5.97;;
70045;SDS011;57385;41.832;23.494;2022-09-21T02:42:38;6.55;;;5.95;;
70045;SDS011;57385;41.832;23.494;2022-09-21T02:43:03;6.68;;;6.07;;
70045;SDS011;57385;41.832;23.494;2022-09-21T02:43:36;7.18;;;6.53;;
70045;SDS011;57385;41.832;23.494;2022-09-21T02:44:07;7.93;;;7.22;;
70045;SDS011;57385;41.832;23.494;2022-09-21T02:44:46;8.38;;;7.68;;
70045;SDS011;57385;41.832;23.494;2022-09-21T02:45:30;8.30;;;7.50;;
70045;SDS011;57385;41.832;23.494;2022-09-21T02:45:58;8.70;;;7.90;;
70045;SDS011;57385;41.832;23.494;2022-09-21T02:46:34;8.90;;;8.00;;
70045;SDS011;57385;41.832;23.494;2022-09-21T02:47:17;8.93;;;8.02;;
70045;SDS011;57385;41.832;23.494;2022-09-21T02:48:04;9.50;;;8.60;;
70045;SDS011;57385;41.832;23.494;2022-09-21T02:48:27;10.40;;;9.40;;
70045;SDS011;57385;41.832;23.494;2022-09-21T02:48:57;11.57;;;10.38;;
70045;SDS011;57385;41.832;23.494;2022-09-21T02:49:23;13.15;;;11.68;;
70045;SDS011;57385;41.832;23.494;2022-09-21T02:49:48;15.07;;;11.98;;